createdAt,value
2023-03-21T00:01:52.765Z,12.30
2023-03-21T00:04:20.999Z,12.30
2023-03-21T00:06:50.959Z,12.30
2023-03-21T00:09:19.691Z,12.30
2023-03-21T00:11:48.340Z,12.30
2023-03-21T00:14:18.687Z,12.30
2023-03-21T00:16:50.452Z,12.40
2023-03-21T00:19:20.741Z,12.30
2023-03-21T00:22:08.717Z,12.30
2023-03-21T00:24:38.148Z,12.30
2023-03-21T00:27:44.869Z,12.30
2023-03-21T00:29:55.620Z,12.30
2023-03-21T00:32:24.094Z,12.30
2023-03-21T00:35:11.801Z,12.30
2023-03-21T00:37:42.981Z,12.30
2023-03-21T00:40:22.953Z,12.20
2023-03-21T00:42:53.598Z,12.30
2023-03-21T00:45:22.201Z,12.30
2023-03-21T00:47:51.664Z,12.30
2023-03-21T00:50:20.803Z,12.30
2023-03-21T00:52:50.381Z,12.20
2023-03-21T00:55:21.006Z,12.20
2023-03-21T00:57:56.215Z,12.20
2023-03-21T01:00:29.810Z,12.20
2023-03-21T01:03:04.270Z,12.20
2023-03-21T01:05:55.641Z,12.20
2023-03-21T01:08:31.203Z,12.10
2023-03-21T01:11:03.342Z,12.20
2023-03-21T01:13:33.088Z,12.20
2023-03-21T01:16:05.220Z,12.10
2023-03-21T01:18:34.116Z,12.20
2023-03-21T01:21:03.078Z,12.20
2023-03-21T01:23:32.685Z,12.30
2023-03-21T01:26:00.933Z,12.10
2023-03-21T01:28:30.231Z,12.10
2023-03-21T01:30:58.634Z,12.10
2023-03-21T01:33:27.101Z,12.10
2023-03-21T01:36:06.512Z,12.10
2023-03-21T01:38:42.161Z,12.10
2023-03-21T01:41:20.102Z,12.10
2023-03-21T01:43:48.639Z,12.10
2023-03-21T01:46:51.505Z,12.10
2023-03-21T01:49:34.255Z,12.20
2023-03-21T01:52:12.710Z,12.20
2023-03-21T01:54:47.598Z,12.20
2023-03-21T01:57:19.934Z,12.20
2023-03-21T01:59:51.151Z,12.20
2023-03-21T02:02:25.462Z,12.20
2023-03-21T02:04:56.162Z,12.20
2023-03-21T02:07:29.274Z,12.20
2023-03-21T02:10:00.384Z,12.20
2023-03-21T02:12:28.822Z,12.40
2023-03-21T02:14:58.244Z,12.20
2023-03-21T02:17:34.597Z,12.20
2023-03-21T02:20:58.807Z,12.10
2023-03-21T02:24:08.725Z,12.20
2023-03-21T02:27:10.302Z,12.10
2023-03-21T02:30:28.799Z,12.10
2023-03-21T02:33:37.805Z,12.10
2023-03-21T02:36:19.130Z,12.10
2023-03-21T02:38:56.667Z,12.10
2023-03-21T02:41:40.037Z,12.20
2023-03-21T02:44:15.875Z,12.00
2023-03-21T02:46:53.712Z,12.00
2023-03-21T02:49:30.899Z,12.00
2023-03-21T02:52:12.270Z,12.00
2023-03-21T02:54:48.933Z,12.00
2023-03-21T02:57:19.856Z,12.00
2023-03-21T02:59:55.442Z,12.00
2023-03-21T03:02:29.158Z,12.00
2023-03-21T03:04:58.804Z,12.00
2023-03-21T03:07:38.541Z,12.00
2023-03-21T03:10:23.792Z,12.00
2023-03-21T03:13:01.301Z,12.00
2023-03-21T03:15:38.517Z,12.00
2023-03-21T03:18:15.593Z,12.00
2023-03-21T03:20:54.026Z,12.00
2023-03-21T03:23:29.038Z,12.10
2023-03-21T03:26:03.678Z,12.00
2023-03-21T03:28:34.339Z,12.10
2023-03-21T03:31:09.576Z,12.00
2023-03-21T03:33:41.770Z,12.00
2023-03-21T03:36:30.350Z,12.00
2023-03-21T03:39:00.685Z,12.00
2023-03-21T03:41:42.837Z,11.90
2023-03-21T03:44:18.471Z,11.90
2023-03-21T03:46:53.566Z,11.90
2023-03-21T03:49:25.157Z,11.80
2023-03-21T03:51:58.867Z,11.90
2023-03-21T03:54:32.217Z,11.90
2023-03-21T03:57:02.294Z,11.80
2023-03-21T03:59:30.604Z,11.80
2023-03-21T04:01:58.866Z,11.70
2023-03-21T04:04:29.172Z,11.70
2023-03-21T04:06:58.139Z,11.70
2023-03-21T04:09:42.589Z,11.70
2023-03-21T04:12:13.792Z,11.70
2023-03-21T04:14:47.203Z,11.70
2023-03-21T04:17:16.420Z,11.70
2023-03-21T04:19:45.529Z,11.70
2023-03-21T04:22:14.173Z,11.60
2023-03-21T04:24:42.939Z,11.60
2023-03-21T04:27:11.232Z,11.70
2023-03-21T04:29:40.949Z,11.50
2023-03-21T04:32:16.201Z,11.60
2023-03-21T04:34:50.112Z,11.70
2023-03-21T04:37:19.069Z,11.60
2023-03-21T04:39:47.985Z,11.60
2023-03-21T04:42:18.417Z,11.60
2023-03-21T04:44:48.454Z,11.60
2023-03-21T04:47:16.969Z,11.60
2023-03-21T04:49:45.723Z,11.70
2023-03-21T04:52:13.993Z,11.70
2023-03-21T04:54:42.213Z,11.70
2023-03-21T04:57:10.608Z,11.60
2023-03-21T04:59:38.937Z,11.80
2023-03-21T05:02:08.440Z,11.80
2023-03-21T05:04:36.628Z,11.80
2023-03-21T05:07:04.864Z,11.80
2023-03-21T05:09:33.224Z,11.80
2023-03-21T05:12:01.388Z,11.80
2023-03-21T05:14:29.583Z,11.80
2023-03-21T05:16:57.851Z,11.80
2023-03-21T05:19:34.684Z,11.80
2023-03-21T05:22:05.514Z,11.80
2023-03-21T05:24:34.216Z,11.80
2023-03-21T05:27:03.164Z,11.80
2023-03-21T05:29:33.575Z,11.80
2023-03-21T05:32:02.465Z,11.80
2023-03-21T05:34:32.100Z,11.80
2023-03-21T05:37:00.403Z,11.80
2023-03-21T05:39:28.669Z,11.80
2023-03-21T05:41:56.851Z,11.80
2023-03-21T05:44:25.027Z,11.80
2023-03-21T05:46:53.250Z,11.90
2023-03-21T05:49:22.673Z,11.90
2023-03-21T05:51:53.855Z,11.80
2023-03-21T05:54:22.071Z,11.90
2023-03-21T05:56:50.311Z,11.80
2023-03-21T05:59:18.414Z,11.80
2023-03-21T06:01:46.996Z,11.70
2023-03-21T06:04:15.881Z,11.90
2023-03-21T06:06:44.952Z,11.90
2023-03-21T06:09:14.874Z,11.90
2023-03-21T06:11:48.313Z,11.90
2023-03-21T06:14:17.174Z,11.90
2023-03-21T06:16:45.490Z,12.00
2023-03-21T06:19:13.985Z,12.00
2023-03-21T06:21:42.284Z,12.00
2023-03-21T06:24:11.397Z,12.00
2023-03-21T06:26:42.740Z,12.10
2023-03-21T06:29:11.248Z,12.00
2023-03-21T06:31:39.461Z,12.00
2023-03-21T06:34:08.103Z,12.00
2023-03-21T06:36:36.572Z,12.10
2023-03-21T06:39:05.027Z,12.00
2023-03-21T06:41:33.140Z,12.00
2023-03-21T06:44:02.697Z,12.00
2023-03-21T06:46:31.307Z,12.10
2023-03-21T06:48:59.575Z,12.10
2023-03-21T06:51:27.893Z,12.20
2023-03-21T06:53:56.209Z,12.20
2023-03-21T06:56:24.441Z,12.20
2023-03-21T06:58:52.930Z,12.20
2023-03-21T07:01:22.650Z,12.20
2023-03-21T07:03:52.030Z,12.20
2023-03-21T07:06:20.562Z,12.20
2023-03-21T07:08:48.732Z,12.30
2023-03-21T07:11:16.952Z,12.30
2023-03-21T07:13:45.510Z,12.30
2023-03-21T07:16:13.679Z,12.30
2023-03-21T07:18:43.728Z,12.30
2023-03-21T07:21:12.066Z,12.30
2023-03-21T07:23:41.429Z,12.30
2023-03-21T07:26:09.970Z,12.30
2023-03-21T07:28:38.292Z,12.20
2023-03-21T07:31:09.176Z,12.20
2023-03-21T07:33:37.414Z,12.20
2023-03-21T07:36:12.697Z,12.20
2023-03-21T07:38:41.200Z,12.10
2023-03-21T07:41:09.621Z,12.00
2023-03-21T07:43:39.206Z,11.90
2023-03-21T07:46:07.812Z,12.10
2023-03-21T07:48:37.154Z,12.00
2023-03-21T07:51:07.159Z,12.00
2023-03-21T07:53:35.359Z,12.00
2023-03-21T07:56:04.042Z,12.00
2023-03-21T07:58:34.170Z,12.00
2023-03-21T08:01:03.151Z,12.00
2023-03-21T08:03:33.282Z,11.90
2023-03-21T08:06:01.979Z,11.90
2023-03-21T08:08:31.606Z,11.90
2023-03-21T08:11:00.431Z,11.90
2023-03-21T08:13:28.764Z,11.80
2023-03-21T08:15:57.085Z,11.80
2023-03-21T08:18:25.442Z,11.80
2023-03-21T08:20:54.179Z,11.70
2023-03-21T08:23:22.740Z,11.70
2023-03-21T08:25:54.233Z,11.70
2023-03-21T08:28:23.353Z,11.70
2023-03-21T08:30:51.932Z,11.60
2023-03-21T08:33:20.211Z,11.60
2023-03-21T08:35:48.783Z,11.60
2023-03-21T08:38:17.203Z,11.60
2023-03-21T08:40:45.417Z,11.60
2023-03-21T08:43:15.222Z,11.50
2023-03-21T08:45:43.596Z,11.60
2023-03-21T08:48:11.915Z,11.60
2023-03-21T08:50:40.384Z,11.50
2023-03-21T08:53:08.571Z,11.50
2023-03-21T08:55:39.692Z,11.50
2023-03-21T08:58:08.211Z,11.50
2023-03-21T09:00:37.899Z,11.50
2023-03-21T09:03:06.201Z,11.50
2023-03-21T09:05:36.695Z,11.50
2023-03-21T09:08:05.898Z,11.50
2023-03-21T09:10:34.193Z,11.50
2023-03-21T09:13:02.671Z,11.50
2023-03-21T09:15:31.583Z,11.50
2023-03-21T09:18:12.983Z,11.50
2023-03-21T09:20:43.216Z,11.50
2023-03-21T09:23:12.108Z,11.40
2023-03-21T09:25:41.306Z,11.50
2023-03-21T09:28:09.986Z,11.50
2023-03-21T09:30:38.699Z,11.50
2023-03-21T09:33:08.609Z,11.40
2023-03-21T09:35:37.718Z,11.60
2023-03-21T09:38:06.252Z,11.60
2023-03-21T09:41:00.919Z,11.60
2023-03-21T09:43:41.502Z,11.60
2023-03-21T09:46:15.315Z,11.70
2023-03-21T09:48:57.178Z,11.70
2023-03-21T09:51:31.225Z,11.70
2023-03-21T09:54:02.373Z,11.70
2023-03-21T09:56:31.210Z,11.70
2023-03-21T09:59:01.519Z,11.70
2023-03-21T10:01:32.974Z,11.70
2023-03-21T10:04:06.542Z,11.60
2023-03-21T10:06:40.126Z,11.60
2023-03-21T10:09:15.019Z,11.60
2023-03-21T10:11:46.634Z,11.60
2023-03-21T10:14:20.291Z,11.60
2023-03-21T10:16:52.476Z,11.60
2023-03-21T10:19:23.363Z,11.50
2023-03-21T10:22:02.795Z,11.50
2023-03-21T10:24:34.111Z,11.60
2023-03-21T10:27:03.746Z,11.60
2023-03-21T10:29:37.032Z,11.60
2023-03-21T10:32:06.150Z,11.70
2023-03-21T10:34:39.895Z,11.80
2023-03-21T10:37:08.710Z,11.80
2023-03-21T10:39:40.211Z,11.90
2023-03-21T10:42:16.858Z,11.90
2023-03-21T10:44:48.732Z,11.90
2023-03-21T10:47:22.539Z,12.00
2023-03-21T10:50:09.649Z,12.00
2023-03-21T10:52:42.854Z,12.10
2023-03-21T10:55:22.636Z,12.10
2023-03-21T10:57:57.480Z,12.20
2023-03-21T11:00:29.091Z,12.10
2023-03-21T11:02:58.547Z,12.30
2023-03-21T11:05:35.771Z,12.30
2023-03-21T11:08:06.845Z,12.40
2023-03-21T11:10:36.871Z,12.40
2023-03-21T11:13:08.966Z,12.30
2023-03-21T11:15:47.830Z,12.40
2023-03-21T11:18:20.050Z,12.30
2023-03-21T11:20:55.288Z,12.30
2023-03-21T11:23:29.503Z,12.30
2023-03-21T11:25:59.847Z,12.20
2023-03-21T11:28:34.799Z,12.20
2023-03-21T11:31:04.508Z,12.20
2023-03-21T11:33:36.578Z,12.20
2023-03-21T11:36:09.009Z,12.20
2023-03-21T11:38:39.975Z,12.20
2023-03-21T11:41:09.064Z,12.20
2023-03-21T11:43:38.908Z,12.20
2023-03-21T11:46:09.463Z,12.10
2023-03-21T11:48:41.942Z,12.10
2023-03-21T11:51:21.543Z,12.00
2023-03-21T11:53:58.758Z,12.00
2023-03-21T11:56:30.347Z,12.00
2023-03-21T11:59:16.385Z,12.00
2023-03-21T12:02:06.169Z,12.10
2023-03-21T12:04:42.284Z,12.00
2023-03-21T12:07:28.669Z,12.00
2023-03-21T12:10:08.090Z,12.00
2023-03-21T12:12:47.645Z,11.90
2023-03-21T12:15:21.269Z,11.90
2023-03-21T12:17:59.506Z,11.90
2023-03-21T12:20:40.773Z,11.80
2023-03-21T12:23:24.436Z,11.90
2023-03-21T12:25:59.162Z,11.90
2023-03-21T12:28:34.762Z,12.00
2023-03-21T12:31:12.685Z,12.00
2023-03-21T12:33:57.043Z,12.00
2023-03-21T12:36:41.566Z,11.90
2023-03-21T12:39:20.910Z,12.00
2023-03-21T12:41:59.475Z,12.00
2023-03-21T12:44:32.811Z,12.10
2023-03-21T12:47:04.322Z,12.20
2023-03-21T12:49:36.602Z,12.20
2023-03-21T12:52:08.782Z,12.20
2023-03-21T12:54:41.228Z,12.20
2023-03-21T12:57:13.376Z,12.30
2023-03-21T12:59:49.750Z,12.30
2023-03-21T13:02:23.179Z,12.30
2023-03-21T13:05:01.352Z,12.30
2023-03-21T13:07:34.438Z,12.30
2023-03-21T13:10:13.048Z,12.30
2023-03-21T13:12:56.103Z,12.40
2023-03-21T13:15:40.496Z,12.40
2023-03-21T13:18:18.649Z,12.50
2023-03-21T13:20:50.584Z,12.50
2023-03-21T13:23:20.303Z,12.60
2023-03-21T13:25:51.617Z,12.60
2023-03-21T13:28:22.728Z,12.70
2023-03-21T13:30:51.665Z,12.80
2023-03-21T13:33:25.863Z,12.90
2023-03-21T13:36:05.259Z,12.90
2023-03-21T13:38:35.435Z,12.90
2023-03-21T13:41:09.282Z,12.90
2023-03-21T13:43:44.470Z,12.90
2023-03-21T13:46:14.200Z,12.90
2023-03-21T13:48:57.782Z,13.00
2023-03-21T13:51:47.307Z,12.90
2023-03-21T13:54:30.628Z,12.90
2023-03-21T13:57:01.660Z,12.90
2023-03-21T13:59:42.147Z,12.90
2023-03-21T14:02:32.760Z,12.90
2023-03-21T14:05:08.829Z,12.90
2023-03-21T14:07:42.432Z,13.00
2023-03-21T14:10:20.865Z,13.10
2023-03-21T14:12:50.944Z,13.20
2023-03-21T14:15:22.829Z,13.20
2023-03-21T14:17:53.891Z,13.30
2023-03-21T14:20:25.416Z,13.40
2023-03-21T14:22:54.069Z,13.40
2023-03-21T14:25:29.246Z,13.50
2023-03-21T14:28:03.916Z,13.50
2023-03-21T14:30:35.467Z,13.60
2023-03-21T14:33:09.027Z,13.60
2023-03-21T14:35:37.705Z,13.70
2023-03-21T14:38:08.931Z,13.70
2023-03-21T14:40:37.650Z,13.70
2023-03-21T14:43:07.974Z,13.70
2023-03-21T14:45:38.363Z,13.70
2023-03-21T14:48:09.496Z,13.80
2023-03-21T14:50:41.671Z,13.80
2023-03-21T14:53:17.485Z,13.80
2023-03-21T14:55:47.972Z,13.80
2023-03-21T14:58:19.151Z,13.80
2023-03-21T15:00:50.436Z,13.90
2023-03-21T15:03:20.387Z,14.00
2023-03-21T15:05:48.843Z,14.10
2023-03-21T15:08:19.837Z,14.10
2023-03-21T15:11:06.151Z,14.10
2023-03-21T15:13:37.871Z,14.30
2023-03-21T15:16:07.132Z,14.50
2023-03-21T15:18:38.968Z,14.60
2023-03-21T15:21:11.519Z,14.70
2023-03-21T15:23:43.017Z,14.80
2023-03-21T15:26:16.484Z,15.00
2023-03-21T15:28:49.233Z,15.20
2023-03-21T15:31:22.899Z,15.50
2023-03-21T15:33:52.984Z,15.50
2023-03-21T15:36:23.276Z,15.60
2023-03-21T15:38:51.810Z,15.60
2023-03-21T15:41:32.118Z,15.70
2023-03-21T15:44:13.638Z,15.80
2023-03-21T15:46:44.214Z,16.10
2023-03-21T15:49:21.027Z,16.50
2023-03-21T15:51:53.292Z,16.90
2023-03-21T15:54:25.762Z,17.20
2023-03-21T15:56:55.906Z,17.60
2023-03-21T15:59:29.072Z,17.80
2023-03-21T16:01:57.930Z,17.90
2023-03-21T16:04:26.572Z,17.90
2023-03-21T16:07:00.280Z,17.80
2023-03-21T16:09:29.961Z,17.70
2023-03-21T16:11:59.837Z,17.60
2023-03-21T16:14:29.589Z,17.60
2023-03-21T16:16:59.032Z,17.60
2023-03-21T16:19:29.581Z,17.40
2023-03-21T16:21:57.796Z,17.30
2023-03-21T16:24:26.179Z,17.20
2023-03-21T16:26:55.100Z,17.10
2023-03-21T16:29:23.558Z,16.90
2023-03-21T16:31:53.268Z,16.80
2023-03-21T16:34:21.730Z,16.70
2023-03-21T16:36:51.109Z,16.50
2023-03-21T16:39:26.344Z,16.40
2023-03-21T16:41:54.862Z,16.20
2023-03-21T16:44:23.632Z,16.20
2023-03-21T16:46:53.626Z,16.20
2023-03-21T16:49:24.795Z,16.10
2023-03-21T16:51:54.354Z,16.00
2023-03-21T16:54:22.866Z,16.00
2023-03-21T16:56:53.666Z,16.00
2023-03-21T16:59:22.592Z,15.90
2023-03-21T17:01:55.616Z,15.80
2023-03-21T17:04:25.078Z,15.80
2023-03-21T17:06:55.020Z,15.70
2023-03-21T17:09:26.158Z,15.80
2023-03-21T17:11:57.492Z,15.70
2023-03-21T17:14:25.873Z,15.70
2023-03-21T17:17:00.076Z,15.70
2023-03-21T17:19:28.291Z,15.60
2023-03-21T17:21:56.555Z,15.60
2023-03-21T17:24:26.194Z,15.70
2023-03-21T17:26:54.640Z,15.70
2023-03-21T17:29:22.840Z,15.60
2023-03-21T17:31:51.221Z,15.60
2023-03-21T17:34:21.254Z,15.60
2023-03-21T17:36:49.822Z,15.60
2023-03-21T17:39:21.389Z,15.50
2023-03-21T17:41:49.765Z,15.50
2023-03-21T17:44:17.925Z,15.50
2023-03-21T17:46:46.663Z,15.50
2023-03-21T17:49:16.397Z,15.50
2023-03-21T17:51:46.912Z,15.50
2023-03-21T17:54:15.267Z,15.50
2023-03-21T17:56:43.484Z,15.50
2023-03-21T17:59:14.406Z,15.50
2023-03-21T18:01:42.991Z,15.50
2023-03-21T18:04:11.359Z,15.50
2023-03-21T18:06:40.002Z,15.50
2023-03-21T18:09:11.671Z,15.40
2023-03-21T18:11:41.190Z,15.50
2023-03-21T18:14:19.491Z,15.40
2023-03-21T18:16:54.197Z,15.40
2023-03-21T18:19:22.519Z,15.40
2023-03-21T18:21:51.286Z,15.40
2023-03-21T18:24:20.903Z,15.30
2023-03-21T18:26:49.139Z,15.30
2023-03-21T18:30:19.699Z,15.20
2023-03-21T18:32:08.734Z,15.20
2023-03-21T18:34:41.651Z,15.20
2023-03-21T18:37:13.091Z,15.20
2023-03-21T18:39:44.456Z,15.20
2023-03-21T18:42:17.400Z,15.10
2023-03-21T18:44:48.110Z,15.10
2023-03-21T18:47:17.236Z,15.10
2023-03-21T18:50:12.700Z,15.10
2023-03-21T18:52:33.886Z,15.00
2023-03-21T18:55:04.760Z,15.00
2023-03-21T18:57:37.463Z,15.10
2023-03-21T19:00:12.632Z,15.00
2023-03-21T19:02:46.292Z,15.00
2023-03-21T19:05:17.129Z,15.00
2023-03-21T19:07:46.274Z,15.00
2023-03-21T19:10:18.885Z,15.00
2023-03-21T19:12:48.716Z,15.00
2023-03-21T19:15:19.723Z,15.00
2023-03-21T19:20:37.724Z,14.90
2023-03-21T19:23:08.221Z,14.90
2023-03-21T19:25:38.923Z,15.00
2023-03-21T19:28:08.135Z,14.90
2023-03-21T19:30:36.667Z,14.90
2023-03-21T19:33:05.167Z,14.90
2023-03-21T19:35:37.318Z,14.80
2023-03-21T19:38:06.141Z,14.90
2023-03-21T19:40:34.322Z,14.80
2023-03-21T19:43:21.589Z,14.80
2023-03-21T19:45:52.658Z,14.70
2023-03-21T19:48:23.426Z,14.70
2023-03-21T19:51:24.371Z,14.70
2023-03-21T19:53:40.361Z,14.70
2023-03-21T19:56:20.686Z,14.60
2023-03-21T19:58:52.108Z,14.60
2023-03-21T20:01:20.616Z,14.60
2023-03-21T20:03:49.417Z,14.60
2023-03-21T20:06:17.760Z,14.60
2023-03-21T20:11:34.536Z,14.60
2023-03-21T20:14:05.214Z,14.60
2023-03-21T20:16:35.944Z,14.70
2023-03-21T20:19:05.862Z,14.70
2023-03-21T20:21:45.270Z,14.60
2023-03-21T20:24:17.614Z,14.50
2023-03-21T20:26:47.008Z,14.50
2023-03-21T20:30:07.116Z,14.50
2023-03-21T20:32:05.293Z,14.50
2023-03-21T20:34:36.812Z,14.40
2023-03-21T20:37:06.121Z,14.40
2023-03-21T20:39:35.951Z,14.40
2023-03-21T20:42:05.424Z,14.40
2023-03-21T20:44:52.328Z,14.40
2023-03-21T20:47:23.564Z,14.30
2023-03-21T20:49:51.774Z,14.30
2023-03-21T20:55:11.371Z,14.30
2023-03-21T20:57:40.273Z,14.20
2023-03-21T21:00:15.821Z,14.30
2023-03-21T21:02:45.699Z,14.20
2023-03-21T21:05:27.456Z,14.20
2023-03-21T21:07:56.640Z,14.10
2023-03-21T21:10:25.918Z,14.10
2023-03-21T21:12:54.295Z,14.10
2023-03-21T21:15:23.951Z,14.10
2023-03-21T21:18:06.430Z,14.10
2023-03-21T21:20:35.878Z,14.10
2023-03-21T21:23:04.229Z,14.10
2023-03-21T21:25:34.120Z,14.10
2023-03-21T21:28:02.597Z,14.00
2023-03-21T21:30:34.288Z,14.00
2023-03-21T21:33:02.453Z,14.00
2023-03-21T21:35:33.410Z,14.00
2023-03-21T21:38:01.561Z,13.90
2023-03-21T21:40:29.917Z,13.80
2023-03-21T21:43:03.239Z,13.80
2023-03-21T21:45:32.872Z,13.90
2023-03-21T21:48:01.252Z,13.70
2023-03-21T21:50:29.446Z,13.80
2023-03-21T21:52:57.882Z,13.50
2023-03-21T21:55:26.156Z,13.60
2023-03-21T21:57:57.970Z,13.60
2023-03-21T22:00:28.449Z,13.50
2023-03-21T22:02:59.186Z,13.50
2023-03-21T22:05:28.214Z,13.40
2023-03-21T22:07:57.431Z,13.40
2023-03-21T22:10:28.207Z,13.40
2023-03-21T22:12:56.488Z,13.30
2023-03-21T22:15:24.929Z,13.30
2023-03-21T22:17:53.322Z,13.10
2023-03-21T22:20:23.352Z,13.10
2023-03-21T22:22:52.220Z,13.00
2023-03-21T22:25:20.530Z,13.00
2023-03-21T22:27:48.724Z,12.90
2023-03-21T22:30:18.500Z,12.90
2023-03-21T22:33:02.536Z,12.90
2023-03-21T22:35:38.636Z,12.90
2023-03-21T22:38:07.168Z,12.80
2023-03-21T22:40:35.422Z,12.80
2023-03-21T22:43:03.766Z,12.70
2023-03-21T22:45:32.896Z,12.70
2023-03-21T22:48:01.225Z,12.70
2023-03-21T22:50:29.919Z,12.70
2023-03-21T22:52:59.433Z,12.60
2023-03-21T22:55:27.677Z,12.60
2023-03-21T22:57:55.875Z,12.60
2023-03-21T23:00:24.125Z,12.50
2023-03-21T23:02:52.467Z,12.50
2023-03-21T23:05:21.909Z,12.50
2023-03-21T23:07:50.148Z,12.50
2023-03-21T23:10:20.133Z,12.60
2023-03-21T23:12:48.529Z,12.60
2023-03-21T23:15:16.772Z,12.70
2023-03-21T23:17:45.473Z,12.70
2023-03-21T23:20:14.083Z,12.70
2023-03-21T23:22:42.310Z,12.80
2023-03-21T23:25:11.941Z,12.90
2023-03-21T23:27:41.682Z,12.80
2023-03-21T23:30:10.416Z,12.90
2023-03-21T23:32:38.707Z,12.90
2023-03-21T23:35:08.099Z,12.80
2023-03-21T23:37:36.626Z,12.90
2023-03-21T23:40:06.855Z,13.00
2023-03-21T23:42:36.098Z,12.90
2023-03-21T23:45:06.643Z,12.90
2023-03-21T23:47:34.978Z,13.00
2023-03-21T23:50:07.507Z,13.00
2023-03-21T23:52:36.420Z,13.00
2023-03-21T23:55:05.094Z,13.00
2023-03-21T23:57:33.345Z,13.00
